Blue Oak Ranch Reserve, California Weather observations

Data are for 10 minute period ending at time listed.
 Day   Time   Solar   Ave.   Ave.  Ave.  Vector  Max.   Baro.   Total    
  of    of     Rad.   Air    Rel.  Wind   Wind   Wind  Press.  Precip.   
Year   Day            Temp.  Hum.  Speed  Dir.   Gust                    
2017   (PST)  Kw/m2    F      %     mph   deg.    mph    mb.     in.     
-------------------------------------------------------------------------
 325    2:50   0.00   50.9    90    1.1   303     2.9   953.0    0.00 
 325    3:00   0.00   52.1    89    0.4    86     2.2   952.9    0.00 
 325    3:10   0.00   52.7    87    0.5   285     3.2   952.8    0.00 
 325    3:20   0.00   51.8    88    1.7   291     3.4   952.9    0.00 
 325    3:30   0.00   52.2    89    0.8    98     2.4   952.8    0.00 
 325    3:40   0.00   52.6    88    0.8    59     2.4   952.7    0.00 
 325    3:50   0.00   52.5    88    1.1   291     2.4   952.6    0.00 
 325    4:00   0.00   52.9    88    0.7   354     2.1   952.7    0.00 
 325    4:10   0.00   52.4    87    1.6    80     2.8   952.6    0.00 
 325    4:20   0.00   51.4    90    1.4   290     3.8   952.6    0.00 
 325    4:30   0.00   51.6    90    1.8   318     3.9   952.7    0.00 
 325    4:40   0.00   51.7    90    1.8    24     3.1   952.7    0.00 
 325    4:50   0.00   52.1    90    1.1   288     2.3   952.9    0.00 
 325    5:00   0.00   52.2    90    0.8    92     2.0   953.1    0.00 
 325    5:10   0.00   52.0    90    1.1   268     2.5   953.1    0.00 
 325    5:20   0.00   52.1    90    1.1    11     2.0   953.1    0.00 
 325    5:30   0.00   52.0    90    0.6   309     2.1   953.0    0.00 
 325    5:40   0.00   51.9    90    1.5   300     2.4   952.9    0.00 
 325    5:50   0.00   52.0    91    1.5   292     2.9   952.9    0.00 
 325    6:00   0.00   52.1    90    0.9   308     2.2   953.0    0.00 
 325    6:10   0.00   52.0    91    0.7    44     2.3   953.1    0.00 
 325    6:20   0.00   52.0    90    0.5    84     1.5   953.2    0.00 
 325    6:30   0.00   52.1    90    1.4   290     2.4   953.2    0.00 
 325    6:40   0.00   51.3    91    2.3   304     3.2   953.3    0.00 
 325    6:50   0.00   51.5    92    1.3    88     2.9   953.4    0.00 
 325    7:00   0.01   51.8    92    1.2   265     2.9   953.5    0.00 
 325    7:10   0.01   51.8    91    1.4   327     3.0   953.9    0.00 
 325    7:20   0.02   51.9    91    2.9    73     5.3   953.9    0.00 
 325    7:30   0.03   52.1    91    0.5    24     1.7   953.6    0.00 
 325    7:40   0.05   51.5    91    3.4   283     4.7   953.7    0.00 
 325    7:50   0.07   52.1    92    2.5     2     3.7   954.0    0.00 
 325    8:00   0.07   53.7    90    0.8    14     3.3   954.0    0.00 
 325    8:10   0.07   55.1    87    0.7    70     1.9   954.1    0.00 
 325    8:20   0.08   55.9    86    0.1   107     1.1   954.0    0.00 
 325    8:30   0.12   56.9    85    1.7   127     2.6   953.8    0.00 
 325    8:40   0.13   57.6    84    2.3   293     3.5   953.7    0.00 
 325    8:50   0.16   59.4    80    0.5   348     2.0   953.6    0.00 
 325    9:00   0.20   61.4    78    0.8   102     1.7   953.7    0.00 
 325    9:10   0.29   63.4    67    1.1   142     1.9   953.7    0.00 
 325    9:20   0.32   65.6    62    1.1   171     2.3   953.7    0.00 
 325    9:30   0.31   67.9    60    0.9   175     2.6   953.9    0.00 
 325    9:40   0.32   69.2    56    0.8   147     2.0   953.9    0.00 
 325    9:50   0.29   71.0    55    1.3   238     2.2   954.1    0.00 
 325   10:00   0.27   71.3    56    1.5   240     2.6   954.2    0.00 
 325   10:10   0.34   70.8    56    2.0   164     3.3   954.3    0.00 
 325   10:20   0.36   71.8    54    1.7   212     4.2   954.4    0.00 
 325   10:30   0.48   73.3    52    2.1   235     4.1   954.4    0.00 
 325   10:40   0.49   75.5    48    1.9   173     4.2   954.3    0.00 
 325   10:50   0.46   75.2    48    2.6   184     4.7   954.2    0.00 
 325   11:00   0.43   75.7    48    3.8   234     6.4   954.1    0.00 
 325   11:10   0.40   74.2    50    3.0   254     4.9   954.0    0.00 
 325   11:20   0.53   74.7    49    3.3   256     5.5   953.9    0.00 
 325   11:30   0.52   76.6    45    2.5   236     3.7   953.8    0.00 
 325   11:40   0.47   75.8    47    4.0   240     6.1   953.6    0.00 
 325   11:50   0.55   75.2    48    2.0   258     3.9   953.5    0.00 
 325   12:00   0.46   76.2    47    3.3   240     5.9   953.2    0.00 
 325   12:10   0.51   76.4    47    3.2   241     5.3   953.1    0.00 
 325   12:20   0.47   75.9    48    3.7   243     6.4   953.1    0.00 
 325   12:30   0.40   75.1    49    3.3   242     5.9   953.1    0.00 
 325   12:40   0.43   74.0    50    2.5   238     5.0   952.9    0.00 
 325   12:50   0.49   75.4    48    2.3   242     4.5   952.9    0.00 
 325   13:00   0.51   76.5    46    2.8   242     4.7   952.8    0.00 
 325   13:10   0.50   77.3    45    2.5   230     5.8   952.7    0.00 
 325   13:20   0.49   77.8    44    1.7   202     3.5   952.6    0.00 
 325   13:30   0.47   78.0    45    2.0   216     4.2   952.4    0.00 
 325   13:40   0.46   78.3    44    2.7   180     5.1   952.2    0.00 
 325   13:50   0.44   78.2    44    3.2   200     6.3   952.1    0.00 
 325   14:00   0.42   78.3    44    2.3   232     5.1   952.0    0.00 
 325   14:10   0.40   77.5    44    3.6   150     5.9   951.9    0.00 
 325   14:20   0.38   77.0    44    3.5   144     5.8   951.8    0.00 
 325   14:30   0.32   76.9    44    3.0   152     5.7   951.8    0.00 
 325   14:40   0.30   76.9    43    3.2   177     5.6   951.8    0.00 
 325   14:50   0.36   77.4    39    3.0   162     4.2   951.8    0.00 
 325   15:00   0.33   78.5    37    2.0   165     5.7   951.8    0.00 
 325   15:10   0.30   79.1    36    2.9   206     6.7   951.7    0.00 
 325   15:20   0.26   79.3    40    3.6   236     5.8   951.6    0.00 
 325   15:30   0.26   77.8    44    2.2   262     4.5   951.6    0.00 
 325   15:40   0.21   77.5    44    2.8   264     5.8   951.8    0.00 
 325   15:50   0.17   75.6    48    2.8   274     4.8   951.8    0.00 
 325   16:00   0.12   75.0    48    0.9   272     3.8   951.9    0.00 
 325   16:10   0.10   75.0    49    1.6   255     2.8   951.9    0.00 
 325   16:20   0.07   72.8    53    2.7   270     4.2   951.9    0.00 
 325   16:30   0.05   70.3    57    2.1   271     3.2   952.0    0.00 
 325   16:40   0.03   68.3    60    0.9    69     1.8   951.9    0.00 
 325   16:50   0.01   66.4    64    1.3   319     2.7   951.8    0.00 
 325   17:00   0.01   64.2    70    2.8   292     3.5   951.8    0.00 
 325   17:10   0.00   62.7    71    1.5    31     3.5   951.8    0.00 
 325   17:20   0.00   61.8    72    2.4    60     3.7   951.7    0.00 
 325   17:30   0.00   61.5    73    0.3    24     1.8   951.6    0.00 
 325   17:40   0.00   60.7    75    0.1   289     0.7   951.6    0.00 
 325   17:50   0.00   60.3    76    0.5   359     1.6   951.7    0.00 
 325   18:00   0.00   59.6    77    0.1     2     0.6   951.7    0.00 
 325   18:10   0.00   58.9    78    0.5   281     1.7   951.8    0.00 
 325   18:20   0.00   58.2    79    1.3    68     2.5   952.0    0.00 
 325   18:30   0.00   57.5    80    0.1   352     1.0   952.1    0.00 
 325   18:40   0.00   57.1    80    0.7   288     2.6   952.2    0.00 
 325   18:50   0.00   56.7    82    1.2   295     2.5   952.4    0.00 
 325   19:00   0.00   56.4    82    1.3    69     3.1   952.6    0.00 
 325   19:10   0.00   56.4    81    1.1   288     2.5   952.7    0.00 
 325   19:20   0.00   55.7    83    0.3   314     1.7   952.8    0.00 
 325   19:30   0.00   56.2    81    2.9   295     4.4   953.0    0.00 
 325   19:40   0.00   55.6    82    1.8   317     2.9   953.2    0.00 
 325   19:50   0.00   55.7    81    1.8    58     3.1   953.2    0.00 
 325   20:00   0.00   55.5    82    1.6   286     2.9   953.2    0.00 
 325   20:10   0.00   54.9    82    0.7    35     2.3   953.2    0.00 
 325   20:20   0.00   54.7    82    1.2    95     2.6   953.2    0.00 
 325   20:30   0.00   54.2    83    1.0   288     2.7   953.2    0.00 
 325   20:40   0.00   53.7    84    3.4   287     4.8   953.3    0.00 
 325   20:50   0.00   56.1    74    1.1   310     4.2   953.5    0.00 
 325   21:00   0.00   56.0    73    1.0    57     2.3   953.5    0.00 
 325   21:10   0.00   55.6    74    1.1    42     1.9   953.5    0.00 
 325   21:20   0.00   55.0    75    2.1   304     3.7   953.4    0.00 
 325   21:30   0.00   54.2    77    1.9   308     3.4   953.4    0.00 
 325   21:40   0.00   54.4    75    0.8   106     2.0   953.4    0.00 
 325   21:50   0.00   55.4    71    0.7   326     2.1   953.4    0.00 
 325   22:00   0.00   55.2    72    0.7   328     1.5   953.5    0.00 
 325   22:10   0.00   54.7    74    0.5   312     1.2   953.6    0.00 
 325   22:20   0.00   54.4    73    0.0   146     0.5   953.7    0.00 
 325   22:30   0.00   54.4    72    0.3    26     1.1   953.7    0.00 
 325   22:40   0.00   54.7    71    1.4   284     2.8   953.7    0.00 
 325   22:50   0.00   54.7    70    0.5   284     1.2   953.8    0.00 
 325   23:00   0.00   54.7    70    0.0   292     0.8   953.8    0.00 
 325   23:10   0.00   54.7    70    0.0   270     0.7   953.8    0.00 
 325   23:20   0.00   55.0    69    0.0   268     0.5   953.8    0.00 
 325   23:30   0.00   54.6    70    0.0   305     0.5   953.8    0.00 
 325   23:40   0.00   54.4    70    0.8   300     1.5   953.8    0.00 
 325   23:50   0.00   54.8    69    0.7   289     1.2   953.8    0.00 
 326    0:00   0.00   55.1    68    0.1   256     0.8   953.7    0.00 
 326    0:10   0.00   55.2    68    0.8   294     2.1   953.6    0.00 
 326    0:20   0.00   54.5    69    1.5   293     3.7   953.6    0.00 
 326    0:30   0.00   54.1    70    1.0   296     3.3   953.6    0.00 
 326    0:40   0.00   55.0    67    1.0    80     2.0   953.5    0.00 
 326    0:50   0.00   54.8    68    1.0   346     2.3   953.5    0.00 
 326    1:00   0.00   54.8    68    0.4   349     1.9   953.4    0.00 
 326    1:10   0.00   54.7    69    1.2   290     2.7   953.2    0.00 
 326    1:20   0.00   55.3    66    1.0   340     2.9   953.2    0.00 
 326    1:30   0.00   55.2    68    1.4    67     3.4   953.1    0.00 
 326    1:40   0.00   54.4    70    2.2   295     3.1   953.0    0.00 
 326    1:50   0.00   53.3    73    1.3    20     2.9   953.1    0.00 
 326    2:00   0.00   53.5    72    0.9   212     2.1   953.1    0.00 
 326    2:10   0.00   54.1    71    0.9   288     1.6   953.2    0.00 
 326    2:20   0.00   53.6    74    1.0    65     2.4   953.3    0.00 
 326    2:30   0.00   53.6    74    1.1   285     2.9   953.3    0.00 
 326    2:40   0.00   53.4    74    0.7    22     1.8   953.3    0.00 

Return to Blue Oak Ranch Reserve graphs page.


Western Regional Climate Center,wrcc@dri.edu